Time;durP1;ratioP1;P1;durP2;ratioP2;P2;SDS_P1;SDS_P2;PMS_P1;PMS_P2;Temp;Humidity;BMP_temperature;BMP_pressure;BME280_temperature;BME280_humidity;BME280_pressure;Samples;Min_cycle;Max_cycle;Signal;HPM_P1;HPM_P2
2022/09/15 00:01:41;;;;;;;1.52;1.42;;;;;;;17.85;94.04;98436.19;5013587;28;20495;-68
2022/09/15 00:04:10;;;;;;;2.85;2.65;;;;;;;17.83;94.11;98434.59;5013651;28;20085;-67
2022/09/15 00:06:38;;;;;;;6.60;1.30;;;;;;;17.83;94.05;98437.16;5013908;28;20038;-67
2022/09/15 00:09:07;;;;;;;3.38;2.35;;;;;;;17.80;94.11;98427.03;5013441;28;20038;-67
2022/09/15 00:11:37;;;;;;;1.50;1.30;;;;;;;17.79;94.00;98415.00;5013584;28;20042;-67
2022/09/15 00:14:08;;;;;;;1.58;1.48;;;;;;;17.71;94.14;98423.13;5016662;28;20072;-68
2022/09/15 00:16:38;;;;;;;2.28;2.08;;;;;;;17.66;94.21;98408.81;5017391;28;20046;-67
2022/09/15 00:19:07;;;;;;;1.63;1.52;;;;;;;17.65;94.45;98405.38;4999982;28;20140;-67
2022/09/15 00:21:39;;;;;;;2.90;2.50;;;;;;;17.67;94.64;98398.41;5017531;28;20415;-67
2022/09/15 00:24:10;;;;;;;7.07;1.42;;;;;;;17.68;94.78;98397.50;5017883;28;20132;-66
2022/09/15 00:26:38;;;;;;;1.52;1.40;;;;;;;17.70;94.82;98405.16;4999994;28;20050;-67
2022/09/15 00:29:11;;;;;;;1.35;0.93;;;;;;;17.70;94.77;98428.38;5017140;28;20492;-67
2022/09/15 00:31:39;;;;;;;2.22;1.50;;;;;;;17.72;94.91;98429.97;5017362;28;20101;-67
2022/09/15 00:34:12;;;;;;;8.60;1.77;;;;;;;17.72;94.92;98426.56;5000086;28;20538;-67
2022/09/15 00:36:41;;;;;;;1.95;1.50;;;;;;;17.70;94.81;98416.31;5018301;28;20054;-68
2022/09/15 00:39:10;;;;;;;1.58;1.30;;;;;;;17.70;94.95;98410.31;5021201;28;20048;-67
2022/09/15 00:41:40;;;;;;;1.42;1.27;;;;;;;17.68;94.89;98394.09;5016865;28;20092;-67
2022/09/15 00:44:34;;;;;;;2.35;1.67;;;;;;;17.69;94.86;98375.09;5016953;28;20124;-66
2022/09/15 00:47:07;;;;;;;2.10;1.60;;;;;;;17.70;95.21;98380.19;5016548;28;20045;-66
2022/09/15 00:49:54;;;;;;;1.42;1.23;;;;;;;17.68;95.10;98386.34;5016693;28;20133;-67
2022/09/15 00:52:34;;;;;;;1.63;1.38;;;;;;;17.67;95.33;98382.91;5016994;28;20558;-66
2022/09/15 00:55:07;;;;;;;1.65;1.15;;;;;;;17.67;95.20;98400.97;5017051;28;20061;-66
2022/09/15 00:57:40;;;;;;;1.58;1.48;;;;;;;17.66;95.04;98393.31;5017206;28;20452;-67
2022/09/15 01:00:12;;;;;;;5.15;2.50;;;;;;;17.65;95.05;98404.53;5016553;28;20061;-66
2022/09/15 01:02:44;;;;;;;2.05;1.88;;;;;;;17.63;95.12;98399.47;5016780;28;20050;-67
2022/09/15 01:05:17;;;;;;;2.03;1.80;;;;;;;17.61;95.19;98390.13;5016478;28;20054;-66
2022/09/15 01:08:02;;;;;;;2.63;1.42;;;;;;;17.60;95.06;98404.78;5016445;28;20061;-67
2022/09/15 01:10:34;;;;;;;1.23;1.15;;;;;;;17.55;94.86;98411.06;5016668;28;20069;-67
2022/09/15 01:13:05;;;;;;;1.52;1.42;;;;;;;17.53;94.92;98408.56;5016362;28;20104;-67
2022/09/15 01:15:45;;;;;;;3.40;1.58;;;;;;;17.57;95.07;98396.34;5016332;28;20052;-67
2022/09/15 01:18:21;;;;;;;2.15;1.95;;;;;;;17.61;95.03;98421.09;5016261;28;20050;-67
2022/09/15 01:21:16;;;;;;;2.58;1.10;;;;;;;17.63;94.93;98414.13;5016226;28;20132;-67
2022/09/15 01:24:09;;;;;;;1.08;0.93;;;;;;;17.67;95.08;98410.47;5016023;28;20088;-66
2022/09/15 01:27:03;;;;;;;1.08;1.00;;;;;;;17.66;95.26;98383.00;5015915;28;20112;-67
2022/09/15 01:30:13;;;;;;;2.25;1.60;;;;;;;17.70;95.00;98411.16;5016058;28;20056;-67
2022/09/15 01:35:34;;;;;;;2.08;1.88;;;;;;;17.73;95.16;98415.34;5016478;28;20008;-67
2022/09/15 01:38:08;;;;;;;2.53;1.80;;;;;;;17.71;94.92;98417.97;4998711;28;20046;-67
2022/09/15 01:40:44;;;;;;;2.13;2.00;;;;;;;17.71;95.07;98406.81;5015795;28;20496;-66
2022/09/15 01:43:17;;;;;;;6.20;2.72;;;;;;;17.72;95.00;98408.50;5015687;28;20064;-66
2022/09/15 01:45:49;;;;;;;1.85;1.70;;;;;;;17.70;94.93;98418.06;5015916;28;20045;-66
2022/09/15 01:48:22;;;;;;;2.00;1.75;;;;;;;17.72;95.12;98429.13;5015751;28;20141;-67
2022/09/15 01:50:55;;;;;;;5.20;2.17;;;;;;;17.74;95.32;98428.16;5015965;28;20108;-66
2022/09/15 01:53:24;;;;;;;2.50;1.70;;;;;;;17.77;95.25;98424.59;5015525;28;20072;-68
2022/09/15 01:55:58;;;;;;;2.20;1.80;;;;;;;17.80;95.28;98427.03;5015518;28;20042;-67
2022/09/15 01:58:27;;;;;;;2.17;1.60;;;;;;;17.83;95.35;98419.09;5015904;28;20054;-67
2022/09/15 02:01:05;;;;;;;1.53;1.17;;;;;;;17.83;95.40;98416.53;5015741;28;20406;-67
2022/09/15 02:03:43;;;;;;;2.88;1.98;;;;;;;17.85;95.51;98422.47;5015268;28;20054;-67
2022/09/15 02:06:21;;;;;;;4.07;2.17;;;;;;;17.84;95.48;98413.03;5015726;28;20100;-67
2022/09/15 02:08:56;;;;;;;2.65;2.17;;;;;;;17.85;95.56;98409.56;5015844;28;20319;-67
2022/09/15 02:11:26;;;;;;;1.13;1.02;;;;;;;17.85;95.53;98409.56;5015273;28;20052;-67
2022/09/15 02:14:10;;;;;;;1.25;1.15;;;;;;;17.82;95.58;98410.53;5015436;28;20092;-67
2022/09/15 02:16:45;;;;;;;1.35;1.25;;;;;;;17.80;95.46;98427.03;5015204;28;20077;-68
2022/09/15 02:19:22;;;;;;;1.13;1.02;;;;;;;17.79;95.51;98420.19;5015720;28;20510;-67
2022/09/15 02:21:57;;;;;;;2.33;1.85;;;;;;;17.76;95.53;98421.16;5015802;28;20064;-67
2022/09/15 02:24:32;;;;;;;3.42;1.80;;;;;;;17.76;95.64;98420.31;5015287;28;20096;-67
2022/09/15 02:27:04;;;;;;;3.28;2.05;;;;;;;17.77;95.68;98416.84;5015356;28;20068;-67
2022/09/15 02:29:36;;;;;;;3.53;2.17;;;;;;;17.80;95.50;98421.84;5014989;28;20053;-68
2022/09/15 02:32:09;;;;;;;1.92;1.33;;;;;;;17.80;95.74;98417.50;5015433;28;20423;-67
2022/09/15 02:34:42;;;;;;;5.30;2.97;;;;;;;17.82;95.63;98414.88;5015157;28;20088;-67
2022/09/15 02:37:12;;;;;;;1.23;1.13;;;;;;;17.81;95.64;98402.88;4996629;28;20148;-67
2022/09/15 02:39:47;;;;;;;2.95;1.77;;;;;;;17.79;95.66;98399.53;5015225;28;20515;-67
2022/09/15 02:42:24;;;;;;;4.63;2.22;;;;;;;17.79;95.90;98400.38;5015023;28;20042;-67
2022/09/15 02:44:53;;;;;;;2.80;2.53;;;;;;;17.75;95.90;98393.69;5014544;28;20509;-68
2022/09/15 02:47:24;;;;;;;6.97;2.85;;;;;;;17.76;96.03;98399.66;5016845;28;20057;-67
2022/09/15 02:49:53;;;;;;;4.15;2.95;;;;;;;17.77;96.07;98403.94;5017057;28;20053;-68
2022/09/15 02:52:22;;;;;;;1.97;1.57;;;;;;;17.77;96.20;98406.53;5014520;28;20053;-67
2022/09/15 02:54:50;;;;;;;3.20;2.50;;;;;;;17.76;96.22;98405.69;5014453;28;20038;-67
2022/09/15 02:57:19;;;;;;;3.15;2.70;;;;;;;17.76;96.29;98399.66;5014448;28;20125;-67
2022/09/15 03:02:28;;;;;;;3.47;2.92;;;;;;;17.79;96.62;98410.69;5014552;28;20420;-68
2022/09/15 03:04:57;;;;;;;3.95;1.67;;;;;;;17.78;96.69;98403.03;5014857;28;20045;-66
2022/09/15 03:07:25;;;;;;;4.20;2.92;;;;;;;17.78;96.60;98392.72;5014666;28;20064;-68
2022/09/15 03:09:54;;;;;;;3.42;3.05;;;;;;;17.81;96.74;98405.44;5014546;28;20070;-67
2022/09/15 03:12:23;;;;;;;3.97;2.83;;;;;;;17.79;96.71;98410.69;5014444;28;20053;-67
2022/09/15 03:14:52;;;;;;;2.00;1.80;;;;;;;17.80;97.34;98411.53;5014090;28;20045;-67
2022/09/15 03:17:20;;;;;;;4.47;3.22;;;;;;;17.79;96.87;98415.84;5014108;28;20048;-67
2022/09/15 03:19:50;;;;;;;4.20;3.58;;;;;;;17.79;97.11;98409.84;5014073;28;20500;-67
2022/09/15 03:22:19;;;;;;;3.92;2.80;;;;;;;17.77;97.01;98409.09;5014014;28;20138;-67
2022/09/15 03:24:48;;;;;;;6.40;2.95;;;;;;;17.75;97.02;98410.94;5014035;28;20073;-67
2022/09/15 03:27:17;;;;;;;8.10;3.67;;;;;;;17.74;97.26;98416.97;5013931;28;20038;-68
2022/09/15 03:29:47;;;;;;;7.75;2.30;;;;;;;17.73;97.17;98410.19;5013919;28;20058;-68
2022/09/15 03:32:15;;;;;;;3.10;2.60;;;;;;;17.75;97.31;98416.94;5013963;28;20053;-67
2022/09/15 03:34:44;;;;;;;2.80;2.28;;;;;;;17.76;97.21;98410.00;5013936;28;20049;-68
2022/09/15 03:37:15;;;;;;;2.70;2.17;;;;;;;17.74;97.37;98411.81;5013775;28;20565;-67
2022/09/15 03:39:44;;;;;;;2.70;2.33;;;;;;;17.75;97.38;98413.50;5013949;28;20054;-67
2022/09/15 03:42:16;;;;;;;4.78;1.83;;;;;;;17.78;97.30;98405.63;5013857;28;20133;-67
2022/09/15 03:44:44;;;;;;;6.97;3.42;;;;;;;17.78;97.40;98397.88;5013512;28;20054;-67
2022/09/15 03:47:13;;;;;;;2.63;1.92;;;;;;;17.76;97.38;98399.66;5013839;28;20506;-67
2022/09/15 03:49:42;;;;;;;4.13;2.65;;;;;;;17.75;97.35;98398.03;5013613;28;20077;-67
2022/09/15 03:52:11;;;;;;;4.25;2.75;;;;;;;17.74;97.44;98396.34;5014073;28;20049;-68
2022/09/15 03:54:41;;;;;;;2.83;2.53;;;;;;;17.72;97.50;98395.59;5013771;28;20523;-67
2022/09/15 03:57:10;;;;;;;2.05;1.80;;;;;;;17.72;97.55;98390.44;5013914;28;20041;-67
2022/09/15 03:59:38;;;;;;;6.55;3.63;;;;;;;17.73;97.64;98394.69;5013631;28;20129;-67
2022/09/15 04:02:07;;;;;;;2.78;2.28;;;;;;;17.72;97.65;98393.00;5013620;28;20046;-67
2022/09/15 04:04:36;;;;;;;2.60;2.28;;;;;;;17.72;97.76;98388.69;5014160;28;20080;-67
2022/09/15 04:07:05;;;;;;;4.25;3.17;;;;;;;17.73;97.77;98392.09;5013529;28;20041;-67
2022/09/15 04:09:36;;;;;;;;;;;;;;;17.73;97.75;98389.53;5014017;28;20137;-68
2022/09/15 04:12:06;;;;;;;3.45;2.08;;;;;;;17.75;97.72;98390.28;5013900;28;20373;-67
2022/09/15 04:14:35;;;;;;;4.47;2.30;;;;;;;17.74;97.81;98396.34;5013861;28;20054;-68
2022/09/15 04:17:04;;;;;;;3.13;2.83;;;;;;;17.73;98.05;98394.69;5013750;28;20065;-66
2022/09/15 04:19:33;;;;;;;9.90;3.63;;;;;;;17.74;98.05;98391.19;5013385;28;20038;-67
2022/09/15 04:22:01;;;;;;;7.57;3.00;;;;;;;17.74;98.16;98386.00;5013516;28;20311;-67
2022/09/15 04:24:30;;;;;;;3.58;2.80;;;;;;;17.73;98.00;98394.69;5013600;28;20042;-67
2022/09/15 04:26:59;;;;;;;7.25;3.85;;;;;;;17.73;98.29;98394.69;5013368;28;20050;-68
2022/09/15 04:29:29;;;;;;;3.38;1.95;;;;;;;17.73;97.91;98389.53;5013645;28;20041;-67
2022/09/15 04:31:58;;;;;;;6.45;2.72;;;;;;;17.73;98.09;98394.69;5013371;28;20046;-67
2022/09/15 04:34:26;;;;;;;3.35;2.70;;;;;;;17.74;98.23;98393.75;5013266;28;20046;-67
2022/09/15 04:36:55;;;;;;;13.13;2.35;;;;;;;17.74;98.36;98393.75;5013669;28;20038;-67
2022/09/15 04:39:24;;;;;;;3.97;2.40;;;;;;;17.73;98.33;98385.19;5013366;28;20038;-67
2022/09/15 04:41:53;;;;;;;3.10;2.80;;;;;;;17.72;98.18;98398.16;5013852;28;20076;-67
2022/09/15 04:44:22;;;;;;;6.25;4.63;;;;;;;17.66;98.15;98393.31;5013368;28;20052;-67
2022/09/15 04:46:52;;;;;;;4.07;2.70;;;;;;;17.60;98.22;98388.44;5013386;28;20149;-68
2022/09/15 04:49:21;;;;;;;3.78;3.20;;;;;;;17.61;98.20;98384.97;5013465;28;20054;-67
2022/09/15 04:51:51;;;;;;;2.00;1.87;;;;;;;17.62;98.24;98389.22;5013395;28;20397;-67
2022/09/15 04:54:20;;;;;;;2.42;2.22;;;;;;;17.65;98.06;98391.66;5013662;28;20260;-67
2022/09/15 04:56:49;;;;;;;6.00;2.13;;;;;;;17.64;98.07;98395.13;5015292;28;20042;-67
2022/09/15 04:59:19;;;;;;;4.55;3.42;;;;;;;17.59;98.00;98399.69;5015462;28;20388;-67
2022/09/15 05:01:48;;;;;;;2.85;2.25;;;;;;;17.61;98.12;98405.63;5016554;28;20408;-67
2022/09/15 05:04:18;;;;;;;2.67;2.45;;;;;;;17.67;97.98;98413.03;5016903;28;20030;-67
2022/09/15 05:06:46;;;;;;;5.85;2.85;;;;;;;17.70;97.84;98413.75;5016770;28;20080;-67
2022/09/15 05:09:15;;;;;;;1.88;1.63;;;;;;;17.77;97.89;98422.00;5016410;28;20060;-67
2022/09/15 05:11:44;;;;;;;2.73;2.50;;;;;;;17.86;97.89;98413.78;5016391;28;20046;-67
2022/09/15 05:14:12;;;;;;;2.65;1.92;;;;;;;17.94;97.99;98411.66;5016336;28;20077;-68
2022/09/15 05:16:41;;;;;;;11.10;1.73;;;;;;;17.99;98.19;98422.59;5016631;28;20108;-67
2022/09/15 05:19:10;;;;;;;2.75;2.15;;;;;;;18.06;97.94;98429.97;5016256;28;20053;-68
2022/09/15 05:21:40;;;;;;;;;;;;;;;18.15;98.10;98428.66;5016589;28;20049;-68
2022/09/15 05:24:09;;;;;;;2.92;2.38;;;;;;;18.18;98.17;98418.16;5016400;28;19922;-67
2022/09/15 05:26:38;;;;;;;4.40;2.60;;;;;;;18.22;98.04;98414.50;5016121;28;20042;-68
2022/09/15 05:29:06;;;;;;;1.63;1.53;;;;;;;18.25;98.13;98409.19;5016309;28;20492;-67
2022/09/15 05:31:35;;;;;;;1.60;1.45;;;;;;;18.27;97.91;98422.00;5016128;28;20041;-68
2022/09/15 05:34:05;;;;;;;1.77;1.40;;;;;;;18.31;98.01;98415.78;5016097;28;20495;-68
2022/09/15 05:36:34;;;;;;;4.18;2.75;;;;;;;18.39;98.18;98422.22;5016063;28;20053;-68
2022/09/15 05:39:04;;;;;;;4.90;2.50;;;;;;;18.42;98.00;98422.06;5015952;28;20129;-67
2022/09/15 05:41:33;;;;;;;1.85;1.45;;;;;;;18.38;98.07;98430.84;5015882;28;20443;-67
2022/09/15 05:44:02;;;;;;;3.30;2.27;;;;;;;18.38;97.96;98430.84;5015717;28;20137;-68
2022/09/15 05:46:31;;;;;;;2.33;2.03;;;;;;;18.37;97.98;98429.22;4998333;28;20469;-68
2022/09/15 05:49:00;;;;;;;1.98;1.80;;;;;;;18.38;98.04;98430.06;5015695;28;20081;-68
2022/09/15 05:51:29;;;;;;;1.83;1.67;;;;;;;18.42;98.15;98437.56;5015916;28;20042;-69
2022/09/15 05:53:58;;;;;;;2.03;1.48;;;;;;;18.47;98.25;98438.19;5015557;28;20056;-67
2022/09/15 05:56:28;;;;;;;1.87;1.47;;;;;;;18.55;98.27;98436.00;5015874;28;20049;-68
2022/09/15 05:58:56;;;;;;;3.00;2.35;;;;;;;18.56;98.19;98440.28;5016155;28;20563;-68
2022/09/15 06:01:27;;;;;;;1.03;1.00;;;;;;;18.57;98.11;98441.94;5015707;28;20492;-68
2022/09/15 06:03:57;;;;;;;14.93;1.58;;;;;;;18.53;98.21;98440.44;5015989;28;20074;-68
2022/09/15 06:06:26;;;;;;;1.90;1.45;;;;;;;18.56;98.10;98448.03;5015357;28;20579;-68
2022/09/15 06:08:56;;;;;;;1.70;1.25;;;;;;;18.55;98.07;98454.09;5015305;28;20045;-69
2022/09/15 06:11:30;;;;;;;1.55;1.38;;;;;;;18.55;98.19;98454.09;5014998;28;20061;-68
2022/09/15 06:13:59;;;;;;;1.45;1.35;;;;;;;18.56;98.13;98445.44;5015262;28;20049;-69
2022/09/15 06:16:32;;;;;;;1.58;1.45;;;;;;;18.59;98.18;98455.63;5015413;28;20392;-68
2022/09/15 06:19:02;;;;;;;2.00;1.23;;;;;;;18.60;98.14;98457.28;5015084;28;20049;-67
2022/09/15 06:21:31;;;;;;;;;;;;;;;18.61;98.00;98461.56;5015431;28;20042;-68
2022/09/15 06:24:02;;;;;;;3.47;1.50;;;;;;;18.61;97.94;98458.97;5014961;28;19960;-68
2022/09/15 06:26:32;;;;;;;1.67;1.58;;;;;;;18.61;98.01;98473.63;5015000;28;20050;-67
2022/09/15 06:29:03;;;;;;;2.63;2.00;;;;;;;18.61;98.00;98477.06;5014992;28;20126;-68
2022/09/15 06:31:34;;;;;;;2.28;1.63;;;;;;;18.63;97.93;98472.63;5015310;28;20485;-68
2022/09/15 06:34:04;;;;;;;2.17;1.42;;;;;;;18.65;97.88;98475.97;5014864;28;20133;-68
2022/09/15 06:36:40;;;;;;;1.30;0.85;;;;;;;18.68;97.94;98481.00;5015150;28;20042;-67
2022/09/15 06:39:09;;;;;;;2.75;2.38;;;;;;;18.72;98.01;98482.50;5014826;28;20132;-68
2022/09/15 06:41:39;;;;;;;2.50;1.90;;;;;;;18.74;97.87;98475.47;5014900;28;20050;-68
2022/09/15 06:44:29;;;;;;;3.40;2.40;;;;;;;18.80;98.06;98478.66;5014730;28;20298;-68
2022/09/15 06:46:57;;;;;;;1.83;1.67;;;;;;;18.82;97.99;98467.31;5015113;28;20042;-67
2022/09/15 06:49:26;;;;;;;2.55;1.00;;;;;;;18.89;97.84;98478.16;5014576;28;20046;-68
2022/09/15 06:51:55;;;;;;;0.70;0.70;;;;;;;18.93;97.94;98482.28;5014539;28;20045;-68
2022/09/15 06:54:24;;;;;;;2.15;1.40;;;;;;;18.98;97.99;98486.25;5014510;28;20058;-68
2022/09/15 06:56:54;;;;;;;1.27;1.08;;;;;;;19.02;98.04;98485.19;5014871;28;20377;-68
2022/09/15 06:59:23;;;;;;;1.70;1.60;;;;;;;19.10;98.00;98479.63;5014710;28;20132;-68
2022/09/15 07:01:53;;;;;;;1.00;0.90;;;;;;;19.18;98.02;98467.06;5014398;28;20084;-69
2022/09/15 07:04:22;;;;;;;2.78;2.13;;;;;;;19.30;98.10;98476.75;5014619;28;20069;-69
2022/09/15 07:06:51;;;;;;;17.17;1.13;;;;;;;19.42;98.14;98478.69;5018228;28;20052;-69
2022/09/15 07:09:19;;;;;;;1.00;0.90;;;;;;;19.50;98.01;98475.69;5016641;28;20072;-68
2022/09/15 07:11:48;;;;;;;1.70;1.38;;;;;;;19.55;97.91;98487.47;5014737;28;20492;-69
2022/09/15 07:14:18;;;;;;;2.20;1.23;;;;;;;19.58;97.89;98484.69;5014094;28;20041;-69
2022/09/15 07:16:47;;;;;;;2.08;1.63;;;;;;;19.62;97.64;98495.72;5014589;28;20468;-68
2022/09/15 07:19:16;;;;;;;1.57;1.37;;;;;;;19.67;97.71;98507.47;5014196;28;20397;-69
2022/09/15 07:21:44;;;;;;;1.35;1.00;;;;;;;19.69;97.70;98508.22;5014012;28;20042;-69
2022/09/15 07:24:13;;;;;;;0.75;0.75;;;;;;;19.72;97.70;98510.66;5013939;28;20042;-68
2022/09/15 07:26:42;;;;;;;1.17;1.05;;;;;;;19.79;97.54;98513.72;5013944;28;20045;-68
2022/09/15 07:29:11;;;;;;;0.63;0.63;;;;;;;19.84;97.30;98522.88;5013981;28;20041;-68
2022/09/15 07:31:41;;;;;;;2.13;1.57;;;;;;;19.92;97.33;98519.84;5014271;28;20045;-68
2022/09/15 07:34:09;;;;;;;1.42;0.93;;;;;;;20.00;97.27;98523.69;5014236;28;20037;-68
2022/09/15 07:36:38;;;;;;;0.82;0.82;;;;;;;20.00;97.01;98541.81;5013851;28;20491;-69
2022/09/15 07:39:07;;;;;;;3.13;1.53;;;;;;;20.01;96.84;98551.25;5014180;28;20515;-68
2022/09/15 07:41:35;;;;;;;1.03;0.83;;;;;;;20.02;96.67;98545.16;5013848;28;20045;-68
2022/09/15 07:44:07;;;;;;;0.60;0.60;;;;;;;20.05;96.46;98551.91;5013779;28;20129;-68
2022/09/15 07:46:35;;;;;;;3.40;1.58;;;;;;;20.11;96.12;98548.97;5013735;28;20072;-69
2022/09/15 07:49:07;;;;;;;0.90;0.85;;;;;;;20.21;96.04;98551.84;5013722;28;20129;-69
2022/09/15 07:51:35;;;;;;;0.80;0.73;;;;;;;20.31;96.15;98547.84;5014086;28;20129;-69
2022/09/15 07:54:04;;;;;;;0.40;0.40;;;;;;;20.43;95.73;98536.78;4996504;28;20137;-67
2022/09/15 07:56:33;;;;;;;1.40;1.13;;;;;;;20.58;95.48;98535.88;4996213;28;20504;-69
2022/09/15 07:59:01;;;;;;;1.47;1.37;;;;;;;20.69;95.34;98528.28;5013978;28;20404;-68
2022/09/15 08:01:30;;;;;;;0.87;0.77;;;;;;;20.77;94.70;98533.00;5013954;28;20583;-69
2022/09/15 08:03:59;;;;;;;1.07;0.90;;;;;;;20.83;94.15;98525.66;5013551;28;20046;-68
2022/09/15 08:06:29;;;;;;;0.70;0.70;;;;;;;20.86;93.51;98520.31;5013525;28;20050;-68
2022/09/15 08:08:58;;;;;;;0.85;0.85;;;;;;;20.87;93.03;98536.72;5014123;28;20073;-68
2022/09/15 08:11:29;;;;;;;0.80;0.80;;;;;;;20.84;92.38;98548.09;4996326;28;20065;-68
2022/09/15 08:14:01;;;;;;;2.10;1.15;;;;;;;20.87;91.83;98537.56;5013363;28;20050;-69
2022/09/15 08:16:30;;;;;;;0.50;0.50;;;;;;;21.09;91.66;98537.91;5013856;28;20119;-68
2022/09/15 08:18:59;;;;;;;0.60;0.60;;;;;;;21.50;91.25;98531.94;5013466;28;20480;-67
2022/09/15 08:21:29;;;;;;;0.60;0.60;;;;;;;21.64;89.76;98534.47;5013492;28;20042;-67
2022/09/15 08:24:00;;;;;;;1.95;1.50;;;;;;;21.61;88.73;98526.88;5013480;28;20060;-67
2022/09/15 08:26:30;;;;;;;0.90;0.77;;;;;;;21.47;87.66;98543.34;5013634;28;20480;-67
2022/09/15 08:28:59;;;;;;;0.35;0.35;;;;;;;21.41;86.43;98542.88;5013539;28;20073;-68
2022/09/15 08:31:28;;;;;;;0.50;0.50;;;;;;;21.36;86.30;98537.97;5013703;28;20050;-69
2022/09/15 08:33:57;;;;;;;0.95;0.68;;;;;;;21.33;85.99;98536.41;5014266;28;20045;-67
2022/09/15 08:36:26;;;;;;;0.63;0.63;;;;;;;21.33;85.61;98535.59;5017156;28;20042;-68
2022/09/15 08:38:57;;;;;;;0.60;0.60;;;;;;;21.38;85.56;98537.91;5017371;28;20042;-68
2022/09/15 08:41:29;;;;;;;0.50;0.50;;;;;;;21.49;85.82;98535.44;5017036;28;20042;-68
2022/09/15 08:44:07;;;;;;;0.93;0.70;;;;;;;21.61;85.57;98529.47;5000169;28;20153;-68
2022/09/15 08:46:42;;;;;;;0.45;0.45;;;;;;;21.73;85.42;98528.69;5016661;28;20056;-68
2022/09/15 08:49:16;;;;;;;0.70;0.70;;;;;;;21.88;85.57;98532.94;5016928;28;20484;-68
2022/09/15 08:52:11;;;;;;;0.70;0.70;;;;;;;21.96;84.96;98530.66;5016715;28;20037;-68
2022/09/15 08:54:41;;;;;;;0.50;0.50;;;;;;;21.97;84.20;98524.53;5017062;28;20081;-68
2022/09/15 08:57:17;;;;;;;1.55;0.93;;;;;;;21.96;83.57;98517.66;5017077;28;20038;-69
2022/09/15 08:59:46;;;;;;;0.68;0.68;;;;;;;21.97;83.45;98521.94;5016930;28;20488;-68
2022/09/15 09:02:44;;;;;;;1.13;1.03;;;;;;;21.93;83.12;98517.88;5016614;28;20068;-69
2022/09/15 09:05:35;;;;;;;0.65;0.65;;;;;;;21.88;82.71;98512.97;5016746;28;20038;-68
2022/09/15 09:08:28;;;;;;;0.93;0.88;;;;;;;21.81;82.39;98500.47;5016597;28;20072;-69
2022/09/15 09:11:04;;;;;;;0.60;0.60;;;;;;;21.72;81.99;98498.44;5016517;28;20416;-68
2022/09/15 09:13:40;;;;;;;0.50;0.50;;;;;;;21.72;82.28;98501.03;5016751;28;20061;-69
2022/09/15 09:16:30;;;;;;;1.13;1.02;;;;;;;21.74;82.58;98501.78;5016527;28;20057;-69
2022/09/15 09:19:12;;;;;;;1.58;1.27;;;;;;;21.78;82.62;98495.47;5021240;28;20053;-69
2022/09/15 09:21:46;;;;;;;0.60;0.60;;;;;;;21.80;82.85;98498.78;5018623;28;20042;-68
2022/09/15 09:24:17;;;;;;;0.93;0.60;;;;;;;21.80;82.94;98498.78;4999028;28;20053;-69
2022/09/15 09:26:53;;;;;;;0.73;0.52;;;;;;;21.80;82.80;98494.44;5016065;28;20128;-69
2022/09/15 09:29:30;;;;;;;0.55;0.50;;;;;;;21.82;82.84;98489.97;5016390;28;20056;-69
2022/09/15 09:32:01;;;;;;;0.50;0.50;;;;;;;21.86;82.87;98499.25;5016106;28;20061;-68
2022/09/15 09:34:38;;;;;;;1.30;0.93;;;;;;;21.91;82.91;98497.19;5016339;28;20042;-69
2022/09/15 09:37:11;;;;;;;1.60;0.80;;;;;;;21.93;82.85;98495.31;4998836;28;20052;-69
2022/09/15 09:39:40;;;;;;;0.55;0.50;;;;;;;21.92;82.77;98492.81;5015926;28;20050;-69
2022/09/15 09:42:17;;;;;;;0.90;0.90;;;;;;;21.91;82.59;98491.13;5016147;28;20057;-68
2022/09/15 09:44:47;;;;;;;0.60;0.60;;;;;;;21.92;82.64;98492.81;5015638;28;20065;-68
2022/09/15 09:47:17;;;;;;;0.60;0.60;;;;;;;21.93;82.41;98476.31;5015128;28;20052;-69
2022/09/15 09:49:48;;;;;;;0.67;0.67;;;;;;;21.96;82.42;98476.09;5016078;28;20097;-68
2022/09/15 09:52:34;;;;;;;0.45;0.45;;;;;;;22.03;82.12;98470.38;5015924;28;20057;-69
2022/09/15 09:55:04;;;;;;;0.40;0.40;;;;;;;22.11;82.43;98471.63;5015698;28;20054;-68
2022/09/15 09:57:36;;;;;;;0.40;0.40;;;;;;;22.16;82.04;98469.56;5015537;28;20046;-68
2022/09/15 10:00:31;;;;;;;0.70;0.70;;;;;;;22.20;81.08;98465.81;5015905;28;20095;-68
2022/09/15 10:03:11;;;;;;;0.40;0.40;;;;;;;22.25;80.28;98464.56;5015825;28;20069;-68
2022/09/15 10:05:40;;;;;;;0.40;0.40;;;;;;;22.31;79.40;98455.53;5015490;28;20081;-69
2022/09/15 10:08:18;;;;;;;0.57;0.57;;;;;;;22.35;78.67;98455.22;5015424;28;20073;-68
2022/09/15 10:10:54;;;;;;;1.77;1.13;;;;;;;22.47;78.25;98458.75;5015388;28;20060;-69
2022/09/15 10:13:25;;;;;;;0.95;0.55;;;;;;;22.72;77.55;98447.53;5015208;28;20100;-68
2022/09/15 10:15:58;;;;;;;2.35;1.27;;;;;;;22.76;75.89;98444.59;5015524;28;20140;-68
2022/09/15 10:18:32;;;;;;;0.50;0.50;;;;;;;22.70;74.75;98434.59;5015230;28;20091;-67
2022/09/15 10:21:02;;;;;;;1.05;0.95;;;;;;;22.64;74.08;98425.47;5015515;28;20042;-68
2022/09/15 10:23:33;;;;;;;0.63;0.63;;;;;;;22.68;73.63;98421.72;5015071;28;20546;-67
2022/09/15 10:26:21;;;;;;;0.60;0.60;;;;;;;22.62;73.17;98411.75;5014997;28;20404;-68
2022/09/15 10:29:11;;;;;;;0.40;0.40;;;;;;;22.62;72.98;98414.34;5015052;28;20099;-69
2022/09/15 10:31:42;;;;;;;0.60;0.60;;;;;;;22.91;73.25;98422.72;5014919;28;20448;-68
2022/09/15 10:34:29;;;;;;;0.40;0.40;;;;;;;23.15;72.39;98413.16;5015280;28;20081;-67
2022/09/15 10:37:16;;;;;;;0.50;0.50;;;;;;;23.22;71.51;98426.56;5014920;28;20046;-68
2022/09/15 10:39:53;;;;;;;0.95;0.80;;;;;;;23.31;71.40;98431.09;5015145;28;20050;-67
2022/09/15 10:42:36;;;;;;;0.80;0.80;;;;;;;23.35;71.79;98424.75;5015115;28;20539;-68
2022/09/15 10:45:18;;;;;;;0.63;0.63;;;;;;;23.21;71.53;98415.31;5014253;28;20057;-67
2022/09/15 10:48:05;;;;;;;0.40;0.40;;;;;;;23.11;71.81;98408.25;5014769;28;20517;-68
2022/09/15 10:50:47;;;;;;;0.52;0.50;;;;;;;23.04;72.27;98407.03;5014678;28;20050;-68
2022/09/15 10:53:25;;;;;;;0.82;0.82;;;;;;;23.00;72.04;98400.41;5014636;28;20522;-68
2022/09/15 10:56:03;;;;;;;1.85;0.68;;;;;;;23.11;71.57;98400.44;5014828;28;20042;-68
2022/09/15 10:58:49;;;;;;;0.75;0.63;;;;;;;23.16;71.27;98421.78;5013556;28;20066;-68
2022/09/15 11:01:36;;;;;;;0.50;0.50;;;;;;;23.16;71.52;98416.56;5014440;28;20104;-68
2022/09/15 11:04:30;;;;;;;0.70;0.70;;;;;;;23.14;71.47;98410.66;5015029;28;20042;-68
2022/09/15 11:07:08;;;;;;;0.50;0.50;;;;;;;23.13;71.24;98422.03;5014285;28;20053;-67
2022/09/15 11:09:43;;;;;;;0.40;0.40;;;;;;;23.18;71.06;98418.13;5014882;28;20053;-68
2022/09/15 11:12:23;;;;;;;0.50;0.50;;;;;;;23.34;70.85;98415.25;5014669;28;20551;-68
2022/09/15 11:15:11;;;;;;;0.50;0.50;;;;;;;23.36;70.24;98418.59;5014200;28;20050;-68
2022/09/15 11:17:54;;;;;;;0.50;0.50;;;;;;;23.42;70.13;98418.16;5014171;28;20042;-68
2022/09/15 11:20:52;;;;;;;0.50;0.50;;;;;;;23.37;69.93;98411.63;5014202;28;20112;-69
2022/09/15 11:23:27;;;;;;;0.95;0.60;;;;;;;23.32;69.67;98411.94;5014312;28;20050;-68
2022/09/15 11:26:04;;;;;;;0.90;0.60;;;;;;;23.28;69.88;98405.28;5014909;28;20048;-68
2022/09/15 11:28:39;;;;;;;0.40;0.40;;;;;;;23.22;69.65;98390.09;4996951;28;20042;-68
2022/09/15 11:31:15;;;;;;;0.50;0.50;;;;;;;23.24;70.10;98385.63;5015560;28;20128;-68
2022/09/15 11:33:52;;;;;;;0.40;0.40;;;;;;;23.32;70.03;98388.50;5002691;28;20105;-71
2022/09/15 11:36:30;;;;;;;0.40;0.40;;;;;;;23.36;69.48;98376.09;5014213;28;20149;-68
2022/09/15 11:39:06;;;;;;;0.50;0.50;;;;;;;23.39;68.87;98376.72;5014456;28;20100;-68
2022/09/15 11:41:39;;;;;;;1.05;0.95;;;;;;;23.43;68.51;98372.94;5013865;28;20042;-68
2022/09/15 11:44:19;;;;;;;0.40;0.40;;;;;;;23.48;68.37;98370.81;5014186;28;20065;-68
2022/09/15 11:47:03;;;;;;;0.35;0.35;;;;;;;23.52;67.88;98372.25;5013615;28;20046;-68
2022/09/15 11:49:41;;;;;;;0.75;0.75;;;;;;;23.50;67.62;98374.13;5013675;28;20089;-69
2022/09/15 11:52:25;;;;;;;0.73;0.68;;;;;;;23.50;67.39;98358.50;5013852;28;20061;-68
2022/09/15 11:55:01;;;;;;;0.55;0.55;;;;;;;23.54;67.16;98364.34;5013634;28;20052;-68
2022/09/15 11:57:36;;;;;;;0.60;0.60;;;;;;;23.54;67.07;98359.94;5014269;28;20050;-67
2022/09/15 12:00:12;;;;;;;0.43;0.43;;;;;;;23.56;67.52;98365.88;5013815;28;20465;-69
2022/09/15 12:02:50;;;;;;;1.25;1.15;;;;;;;23.57;67.76;98364.94;5013615;28;20054;-66
2022/09/15 12:05:24;;;;;;;0.50;0.50;;;;;;;23.53;68.13;98362.66;5013784;28;20038;-68
2022/09/15 12:07:59;;;;;;;0.50;0.50;;;;;;;23.52;68.01;98356.63;5013867;28;20070;-68